Time;durP1;ratioP1;P1;durP2;ratioP2;P2;SDS_P1;SDS_P2;PMS_P1;PMS_P2;Temp;Humidity;BMP_temperature;BMP_pressure;BME280_temperature;BME280_humidity;BME280_pressure;Samples;Min_cycle;Max_cycle;Signal;HPM_P1;HPM_P2
2022/10/18 00:01:43;;;;;;;8.32;4.28;;;;;;;17.04;72.28;102649.75;6217053;22;20003;-73
2022/10/18 00:04:08;;;;;;;7.38;3.80;;;;;;;17.03;72.45;102648.88;6244750;22;20090;-71
2022/10/18 00:06:33;;;;;;;10.45;4.28;;;;;;;16.98;72.58;102652.28;6246744;22;20016;-72
2022/10/18 00:08:59;;;;;;;9.65;4.40;;;;;;;16.93;72.78;102660.13;6242022;22;20011;-72
2022/10/18 00:11:24;;;;;;;11.60;4.50;;;;;;;16.90;72.38;102649.53;6248129;22;20106;-72
2022/10/18 00:13:49;;;;;;;9.63;4.13;;;;;;;16.90;72.20;102651.28;6245910;22;20011;-73
2022/10/18 00:16:17;;;;;;;8.88;4.13;;;;;;;16.92;72.29;102644.31;6242740;22;20513;-72
2022/10/18 00:18:43;;;;;;;8.25;4.28;;;;;;;16.86;72.25;102647.72;6242673;22;20030;-72
2022/10/18 00:21:15;;;;;;;10.02;4.55;;;;;;;16.81;72.38;102653.78;6217858;22;20031;-72
2022/10/18 00:23:41;;;;;;;8.68;4.65;;;;;;;16.74;72.50;102652.78;6245762;22;20563;-71
2022/10/18 00:26:12;;;;;;;9.32;4.80;;;;;;;16.70;72.37;102656.25;6249848;22;20419;-72
2022/10/18 00:28:39;;;;;;;7.65;4.30;;;;;;;16.67;72.24;102648.28;6236899;22;20474;-73
2022/10/18 00:31:23;;;;;;;7.75;4.43;;;;;;;16.65;72.27;102655.25;6222834;22;20022;-73
2022/10/18 00:33:51;;;;;;;10.23;4.35;;;;;;;16.64;72.35;102645.63;6239974;22;20502;-72
2022/10/18 00:36:16;;;;;;;9.35;4.60;;;;;;;16.57;72.17;102648.97;6245315;22;20015;-72
2022/10/18 00:38:43;;;;;;;9.63;4.82;;;;;;;16.57;71.96;102654.25;6236388;22;20158;-73
2022/10/18 00:41:11;;;;;;;9.55;4.53;;;;;;;16.54;72.07;102655.06;6247898;22;20062;-72
2022/10/18 00:43:58;;;;;;;8.52;4.35;;;;;;;16.53;71.88;102670.81;6246317;22;20073;-72
2022/10/18 00:46:25;;;;;;;9.43;5.03;;;;;;;16.46;72.14;102666.34;6239334;22;20007;-72
2022/10/18 00:48:51;;;;;;;12.52;4.78;;;;;;;16.41;72.59;102665.34;6246546;22;20008;-72
2022/10/18 00:51:19;;;;;;;9.50;4.75;;;;;;;16.34;72.29;102660.84;6240910;22;20011;-72
2022/10/18 00:53:45;;;;;;;12.23;4.80;;;;;;;16.30;72.20;102661.63;6247490;22;20015;-71
2022/10/18 00:56:12;;;;;;;10.70;4.80;;;;;;;16.28;72.19;102660.75;6249706;22;20367;-72
2022/10/18 00:58:37;;;;;;;8.07;4.28;;;;;;;16.27;72.17;102657.22;6240260;22;20427;-72
2022/10/18 01:01:03;;;;;;;9.80;4.80;;;;;;;16.19;72.24;102654.44;6248189;22;20004;-73
2022/10/18 01:03:28;;;;;;;10.35;4.80;;;;;;;16.18;72.30;102660.56;6243072;22;20046;-72
2022/10/18 01:05:54;;;;;;;10.35;4.80;;;;;;;16.19;72.26;102661.44;6246564;22;20023;-72
2022/10/18 01:08:33;;;;;;;8.02;4.25;;;;;;;16.21;72.10;102665.00;6241974;22;20061;-72
2022/10/18 01:11:07;;;;;;;9.57;5.00;;;;;;;16.25;72.26;102672.09;6249487;22;20008;-72
2022/10/18 01:13:51;;;;;;;;;;;;;;;16.20;72.47;102673.75;6248998;22;20449;-72
2022/10/18 01:16:28;;;;;;;10.40;4.68;;;;;;;16.18;72.32;102673.72;6247765;22;19911;-71
2022/10/18 01:19:01;;;;;;;7.28;4.38;;;;;;;16.16;72.33;102672.78;6246617;22;20444;-72
2022/10/18 01:21:49;;;;;;;11.95;4.65;;;;;;;16.21;72.39;102676.41;6244850;22;20072;-72
2022/10/18 01:24:29;;;;;;;9.10;4.38;;;;;;;16.21;72.42;102667.63;6247570;22;20008;-72
2022/10/18 01:27:06;;;;;;;7.57;4.10;;;;;;;16.19;72.11;102672.84;6244037;22;20080;-72
2022/10/18 01:29:48;;;;;;;10.48;4.68;;;;;;;16.13;72.20;102672.75;6218895;22;20034;-72
2022/10/18 01:32:27;;;;;;;9.23;4.40;;;;;;;16.06;72.12;102673.47;6250358;22;20026;-72
2022/10/18 01:35:00;;;;;;;8.55;4.35;;;;;;;16.06;71.93;102672.59;6247866;22;20481;-72
2022/10/18 01:37:28;;;;;;;8.70;4.45;;;;;;;16.05;71.99;102665.53;6249591;22;20325;-71
2022/10/18 01:39:57;;;;;;;10.05;4.55;;;;;;;15.99;71.98;102668.06;6239068;22;20473;-71
2022/10/18 01:42:23;;;;;;;8.82;4.57;;;;;;;15.98;71.92;102674.22;6247479;22;20003;-72
2022/10/18 01:44:51;;;;;;;11.05;4.60;;;;;;;15.93;72.29;102679.34;6241717;22;20010;-71
2022/10/18 01:47:17;;;;;;;12.60;4.28;;;;;;;15.87;72.70;102683.59;6250229;22;20300;-72
2022/10/18 01:49:42;;;;;;;6.78;3.55;;;;;;;15.89;72.18;102676.63;6247599;22;20010;-71
2022/10/18 01:52:13;;;;;;;10.68;4.13;;;;;;;15.91;71.90;102670.56;6215725;22;20008;-73
2022/10/18 01:54:43;;;;;;;12.70;4.35;;;;;;;15.87;72.24;102675.69;6244127;22;20806;-72
2022/10/18 01:58:11;;;;;;;8.73;4.03;;;;;;;15.81;72.08;102692.25;6244302;22;20012;-72
2022/10/18 02:00:49;;;;;;;9.73;4.03;;;;;;;15.81;72.28;102685.25;6121126;23;20483;-74
2022/10/18 02:03:22;;;;;;;12.07;4.70;;;;;;;15.80;72.51;102696.63;6150564;23;20017;-73
2022/10/18 02:05:53;;;;;;;9.27;4.20;;;;;;;15.79;72.55;102694.88;6225127;22;20478;-72
2022/10/18 02:08:29;;;;;;;8.02;4.30;;;;;;;15.78;72.23;102686.94;6243442;22;20015;-72
2022/10/18 02:11:15;;;;;;;10.15;4.50;;;;;;;15.76;72.25;102693.91;6246335;22;20097;-72
2022/10/18 02:13:51;;;;;;;9.23;4.32;;;;;;;15.72;72.26;102689.44;6247003;22;20038;-72
2022/10/18 02:16:27;;;;;;;11.02;4.30;;;;;;;15.70;72.08;102696.41;6244481;22;20012;-71
2022/10/18 02:18:59;;;;;;;11.65;5.00;;;;;;;15.66;72.46;102697.19;6248432;22;20419;-72
2022/10/18 02:21:27;;;;;;;11.85;4.55;;;;;;;15.64;72.42;102698.91;6244692;22;20046;-71
2022/10/18 02:23:54;;;;;;;9.88;4.47;;;;;;;15.62;72.37;102705.84;6249509;22;20019;-71
2022/10/18 02:26:20;;;;;;;9.73;4.20;;;;;;;15.60;72.19;102695.34;6219376;22;20065;-72
2022/10/18 02:28:45;;;;;;;9.02;4.18;;;;;;;15.59;72.35;102697.91;6244524;22;20012;-72
2022/10/18 02:31:19;;;;;;;12.02;4.38;;;;;;;15.57;72.32;102703.13;6221022;22;20347;-72
2022/10/18 02:33:54;;;;;;;8.60;3.83;;;;;;;15.54;72.15;102699.56;6244555;22;20007;-71
2022/10/18 02:36:32;;;;;;;8.52;4.45;;;;;;;15.51;72.03;102696.81;6242819;22;20069;-71
2022/10/18 02:39:03;;;;;;;10.90;4.50;;;;;;;15.49;72.24;102698.56;6239804;22;20015;-72
2022/10/18 02:41:30;;;;;;;11.98;4.60;;;;;;;15.43;72.38;102697.53;6248869;22;20003;-73
2022/10/18 02:43:56;;;;;;;9.57;4.60;;;;;;;15.40;72.21;102701.84;6249669;22;20007;-72
2022/10/18 02:46:21;;;;;;;12.02;4.40;;;;;;;15.37;72.34;102705.28;6239596;22;20503;-73
2022/10/18 02:48:47;;;;;;;12.20;4.40;;;;;;;15.33;72.32;102700.81;6246604;22;20275;-72
2022/10/18 02:51:12;;;;;;;8.75;4.40;;;;;;;15.30;72.29;102690.25;6239481;22;20011;-72
2022/10/18 02:53:37;;;;;;;9.43;4.38;;;;;;;15.29;72.28;102693.72;6246753;22;20110;-72
2022/10/18 02:56:03;;;;;;;13.02;4.93;;;;;;;15.29;72.06;102684.94;6245588;22;20369;-72
2022/10/18 02:58:28;;;;;;;7.03;4.07;;;;;;;15.27;72.14;102679.66;6236924;22;20119;-73
2022/10/18 03:00:54;;;;;;;11.82;4.28;;;;;;;15.25;72.19;102681.34;6252045;22;20486;-72
2022/10/18 03:03:20;;;;;;;11.15;4.20;;;;;;;15.22;72.01;102689.19;6244119;22;20467;-72
2022/10/18 03:05:48;;;;;;;10.48;4.50;;;;;;;15.19;72.25;102683.84;6246611;22;20016;-72
2022/10/18 03:08:14;;;;;;;8.57;4.22;;;;;;;15.16;71.86;102693.41;6246333;22;20012;-71
2022/10/18 03:10:39;;;;;;;9.35;4.50;;;;;;;15.13;72.10;102686.31;6241991;22;20081;-72
2022/10/18 03:13:04;;;;;;;8.27;3.88;;;;;;;15.12;72.11;102691.56;6250892;22;20481;-71
2022/10/18 03:15:30;;;;;;;8.60;4.00;;;;;;;15.10;71.85;102696.78;6243308;22;20043;-72
2022/10/18 03:17:55;;;;;;;9.00;4.25;;;;;;;15.09;71.93;102689.75;6249543;22;20011;-72
2022/10/18 03:20:21;;;;;;;12.80;5.43;;;;;;;15.04;71.95;102696.63;6244365;22;20010;-72
2022/10/18 03:22:46;;;;;;;12.50;5.28;;;;;;;15.00;72.08;102689.53;6243657;22;20035;-73
2022/10/18 03:25:12;;;;;;;9.27;4.55;;;;;;;14.98;72.04;102692.13;6245526;22;20076;-73
2022/10/18 03:27:37;;;;;;;7.13;4.07;;;;;;;14.98;71.96;102693.84;6242526;22;20285;-71
2022/10/18 03:30:04;;;;;;;14.27;4.47;;;;;;;14.96;72.14;102701.69;6248355;22;20061;-71
2022/10/18 03:32:30;;;;;;;7.80;4.28;;;;;;;14.96;71.68;102701.69;6240844;22;20004;-71
2022/10/18 03:34:55;;;;;;;11.57;4.72;;;;;;;14.90;72.14;102698.91;6247000;22;20000;-72
2022/10/18 03:37:20;;;;;;;8.70;4.50;;;;;;;14.88;71.95;102711.09;6248492;22;20008;-72
2022/10/18 03:39:46;;;;;;;9.77;4.07;;;;;;;14.87;72.02;102704.09;6241728;22;20041;-72
2022/10/18 03:42:11;;;;;;;12.93;4.57;;;;;;;14.87;71.94;102711.09;6246308;22;20077;-71
2022/10/18 03:44:36;;;;;;;8.80;4.13;;;;;;;14.86;71.97;102704.06;6239091;22;20064;-72
2022/10/18 03:47:02;;;;;;;7.82;4.18;;;;;;;14.86;71.83;102707.56;6247345;22;20649;-72
2022/10/18 03:49:27;;;;;;;11.45;4.30;;;;;;;14.79;71.56;102699.50;6247354;22;20031;-72
2022/10/18 03:51:53;;;;;;;11.48;4.57;;;;;;;14.80;71.72;102699.53;6240949;22;20090;-72
2022/10/18 03:54:18;;;;;;;9.02;4.30;;;;;;;14.82;71.84;102692.56;6249552;22;20118;-72
2022/10/18 03:56:44;;;;;;;9.20;4.20;;;;;;;14.82;71.75;102697.81;6240807;22;20090;-72
2022/10/18 03:59:09;;;;;;;14.60;4.60;;;;;;;14.80;72.04;102693.41;6246633;22;20440;-71
2022/10/18 04:01:34;;;;;;;12.45;4.82;;;;;;;14.72;72.29;102701.06;6247525;22;20319;-74
2022/10/18 04:04:00;;;;;;;10.32;4.70;;;;;;;14.77;71.53;102702.06;6244147;22;20011;-72
2022/10/18 04:06:25;;;;;;;13.43;5.07;;;;;;;14.72;71.96;102705.44;6243358;22;20047;-71
2022/10/18 04:08:51;;;;;;;12.45;4.38;;;;;;;14.69;71.80;102697.50;6244261;22;20015;-71
2022/10/18 04:11:16;;;;;;;8.88;4.63;;;;;;;14.69;71.64;102702.75;6247595;22;20074;-72
2022/10/18 04:13:41;;;;;;;14.63;4.70;;;;;;;14.64;71.86;102693.88;6248830;22;20415;-72
2022/10/18 04:16:07;;;;;;;12.07;4.68;;;;;;;14.63;72.08;102692.97;6242418;22;20010;-73
2022/10/18 04:18:32;;;;;;;12.15;4.60;;;;;;;14.59;72.20;102688.47;6242701;22;20014;-72
2022/10/18 04:20:57;;;;;;;14.13;4.88;;;;;;;14.56;71.91;102693.66;6244878;22;20020;-72
2022/10/18 04:23:23;;;;;;;11.80;4.47;;;;;;;14.58;71.90;102691.94;6249031;22;20004;-72
2022/10/18 04:25:48;;;;;;;12.68;4.60;;;;;;;14.51;72.07;102690.94;6247185;22;20007;-72
2022/10/18 04:28:13;;;;;;;10.30;4.68;;;;;;;14.51;71.92;102697.91;6239761;22;20433;-71
2022/10/18 04:30:39;;;;;;;11.55;4.70;;;;;;;14.52;71.56;102703.19;6243618;22;20302;-70
2022/10/18 04:33:04;;;;;;;13.18;5.00;;;;;;;14.45;72.01;102711.78;6242570;22;20110;-72
2022/10/18 04:35:29;;;;;;;12.75;4.68;;;;;;;14.42;71.81;102706.41;6248701;22;20000;-73
2022/10/18 04:37:55;;;;;;;10.50;4.47;;;;;;;14.41;71.74;102696.78;6247359;22;20315;-72
2022/10/18 04:40:20;;;;;;;10.25;4.70;;;;;;;14.40;71.68;102702.84;6239430;22;20172;-73
2022/10/18 04:42:46;;;;;;;9.85;4.03;;;;;;;14.42;71.53;102710.78;6250156;22;20018;-72
2022/10/18 04:45:11;;;;;;;13.60;4.97;;;;;;;14.43;71.32;102715.19;6243584;22;20486;-71
2022/10/18 04:47:37;;;;;;;12.40;4.78;;;;;;;14.34;71.43;102721.03;6247485;22;20003;-72
2022/10/18 04:50:03;;;;;;;10.73;4.47;;;;;;;14.30;71.53;102718.28;6249841;22;20014;-71
2022/10/18 04:52:28;;;;;;;13.23;4.80;;;;;;;14.26;71.67;102714.69;6212267;22;20509;-72
2022/10/18 04:54:54;;;;;;;11.65;4.25;;;;;;;14.23;71.84;102722.47;6246895;22;20007;-71
2022/10/18 04:57:19;;;;;;;11.52;4.63;;;;;;;14.29;71.35;102727.88;6242418;22;20007;-71
2022/10/18 04:59:45;;;;;;;11.48;4.93;;;;;;;14.28;71.58;102733.09;6219609;22;20364;-71
2022/10/18 05:02:10;;;;;;;9.60;4.57;;;;;;;14.19;71.70;102724.13;6247534;22;20162;-71
2022/10/18 05:04:36;;;;;;;11.48;4.55;;;;;;;14.19;71.49;102726.75;6238113;22;20011;-71
2022/10/18 05:07:01;;;;;;;10.73;4.45;;;;;;;14.16;71.70;102726.66;6245026;22;20062;-71
2022/10/18 05:09:27;;;;;;;9.57;4.20;;;;;;;14.10;71.86;102736.09;6241342;22;20447;-72
2022/10/18 05:11:52;;;;;;;14.35;4.43;;;;;;;14.12;71.31;102739.66;6248019;22;20018;-72
2022/10/18 05:14:18;;;;;;;11.23;4.68;;;;;;;14.05;71.55;102741.19;6246294;22;20038;-72
2022/10/18 05:16:43;;;;;;;12.48;5.00;;;;;;;14.01;71.68;102747.22;6239671;22;20011;-72
2022/10/18 05:19:09;;;;;;;10.65;4.68;;;;;;;13.96;71.80;102754.06;6242401;22;20007;-72
2022/10/18 05:21:34;;;;;;;10.48;4.97;;;;;;;13.95;71.75;102751.38;6243597;22;20012;-72
2022/10/18 05:24:00;;;;;;;8.60;4.63;;;;;;;13.92;71.69;102736.44;6246843;22;20340;-72
2022/10/18 05:26:25;;;;;;;9.30;4.35;;;;;;;13.91;71.48;102726.78;6235840;22;20008;-72
2022/10/18 05:28:50;;;;;;;13.68;5.07;;;;;;;13.91;71.78;102729.41;6245007;22;20016;-71
2022/10/18 05:31:16;;;;;;;9.57;4.53;;;;;;;13.89;71.78;102744.25;6217629;22;20036;-71
2022/10/18 05:33:42;;;;;;;17.00;5.07;;;;;;;13.87;71.59;102748.53;6241834;22;20091;-72
2022/10/18 05:36:08;;;;;;;11.48;4.93;;;;;;;13.88;71.50;102750.31;6219106;22;20095;-72
2022/10/18 05:38:33;;;;;;;11.65;4.72;;;;;;;13.82;71.79;102752.75;6237949;22;20498;-72
2022/10/18 05:41:03;;;;;;;11.13;4.85;;;;;;;13.79;71.61;102756.16;6244661;22;20418;-72
2022/10/18 05:43:28;;;;;;;11.52;4.63;;;;;;;13.76;71.53;102752.56;6245042;22;20354;-72
2022/10/18 05:45:54;;;;;;;11.55;4.80;;;;;;;13.73;71.79;102755.97;6241295;22;20359;-72
2022/10/18 05:48:20;;;;;;;13.20;4.82;;;;;;;13.76;71.18;102761.34;6240807;22;20416;-72
2022/10/18 05:50:45;;;;;;;10.93;4.80;;;;;;;13.74;71.23;102767.34;6243762;22;20031;-72
2022/10/18 05:53:11;;;;;;;13.60;5.82;;;;;;;13.63;71.83;102755.66;6248017;22;20364;-72
2022/10/18 05:55:36;;;;;;;9.40;4.50;;;;;;;13.64;71.77;102757.44;6247926;22;19999;-72
2022/10/18 05:58:02;;;;;;;9.45;4.70;;;;;;;13.62;71.73;102759.13;6240296;22;20015;-72
2022/10/18 06:00:28;;;;;;;8.60;4.30;;;;;;;13.61;71.36;102778.31;6243772;22;20074;-73
2022/10/18 06:02:54;;;;;;;12.82;5.00;;;;;;;13.62;71.03;102787.94;6241152;22;20503;-72
2022/10/18 06:05:20;;;;;;;9.90;4.85;;;;;;;13.54;71.47;102781.59;6246548;22;20280;-73
2022/10/18 06:07:45;;;;;;;10.90;4.90;;;;;;;13.51;71.53;102769.28;6245071;22;20047;-71
2022/10/18 06:10:11;;;;;;;10.35;4.47;;;;;;;13.49;71.68;102775.28;6242694;22;20418;-71
2022/10/18 06:12:36;;;;;;;11.38;4.72;;;;;;;13.48;71.57;102787.50;6247712;22;20105;-71
2022/10/18 06:15:02;;;;;;;8.65;4.50;;;;;;;13.46;71.70;102794.44;6243545;22;20247;-71
2022/10/18 06:17:27;;;;;;;10.38;4.25;;;;;;;13.50;71.43;102800.66;6249922;22;20011;-73
2022/10/18 06:19:52;;;;;;;10.63;4.70;;;;;;;13.48;71.70;102799.75;6247982;22;20354;-72
2022/10/18 06:22:18;;;;;;;10.40;4.57;;;;;;;13.47;71.80;102805.81;6243346;22;20450;-72
2022/10/18 06:24:43;;;;;;;8.98;4.32;;;;;;;13.48;71.60;102800.59;6248612;22;20079;-72
2022/10/18 06:27:09;;;;;;;11.93;5.30;;;;;;;13.47;71.78;102804.09;6244387;22;20008;-72
2022/10/18 06:29:35;;;;;;;11.30;4.63;;;;;;;13.45;71.93;102815.34;6245135;22;20451;-72
2022/10/18 06:32:00;;;;;;;13.02;4.80;;;;;;;13.40;71.80;102817.84;6248377;22;20086;-71
2022/10/18 06:34:26;;;;;;;10.77;4.53;;;;;;;13.44;71.95;102821.44;6239074;22;20083;-72
2022/10/18 06:36:51;;;;;;;11.15;4.60;;;;;;;13.45;72.16;102815.34;6247179;22;20003;-71
2022/10/18 06:39:16;;;;;;;13.13;4.70;;;;;;;13.42;72.20;102812.66;6237175;22;20007;-71
2022/10/18 06:41:42;;;;;;;10.43;5.00;;;;;;;13.46;72.28;102817.13;6247604;22;20439;-72
2022/10/18 06:44:12;;;;;;;10.32;4.63;;;;;;;13.50;71.77;102826.88;6248125;22;20014;-71
2022/10/18 06:46:43;;;;;;;11.10;4.93;;;;;;;13.50;72.14;102827.75;6238221;22;20034;-73
2022/10/18 06:49:08;;;;;;;10.73;4.68;;;;;;;13.57;72.14;102828.84;6248267;22;20010;-71
2022/10/18 06:51:34;;;;;;;9.55;4.82;;;;;;;13.64;72.22;102829.09;6242113;22;20011;-71
2022/10/18 06:53:59;;;;;;;11.05;4.80;;;;;;;13.69;72.17;102832.75;6246801;22;20012;-71
2022/10/18 06:56:24;;;;;;;18.17;8.80;;;;;;;13.73;72.41;102825.88;6210757;22;20413;-72
2022/10/18 06:58:50;;;;;;;12.25;6.20;;;;;;;13.81;72.19;102838.38;6246375;22;20011;-72
2022/10/18 07:01:16;;;;;;;10.60;5.60;;;;;;;13.90;72.09;102842.16;6219014;22;20475;-71
2022/10/18 07:03:43;;;;;;;11.73;5.20;;;;;;;13.88;72.31;102836.84;6244645;22;20015;-73
2022/10/18 07:06:11;;;;;;;11.75;4.90;;;;;;;13.95;72.30;102845.78;6248229;22;20101;-73
2022/10/18 07:08:38;;;;;;;11.80;4.88;;;;;;;14.00;72.46;102838.94;6236173;22;20015;-72
2022/10/18 07:11:04;;;;;;;10.30;4.82;;;;;;;14.05;72.38;102846.09;6247805;22;20000;-72
2022/10/18 07:13:31;;;;;;;14.90;4.80;;;;;;;14.09;72.35;102845.34;6247419;22;20010;-73
2022/10/18 07:16:08;;;;;;;8.80;4.75;;;;;;;14.18;72.36;102844.75;6243683;22;20179;-72
2022/10/18 07:18:35;;;;;;;9.93;4.95;;;;;;;14.25;72.32;102854.59;6232668;22;20018;-72
2022/10/18 07:21:05;;;;;;;12.00;5.05;;;;;;;14.29;72.55;102859.06;6240426;22;20015;-73
2022/10/18 07:23:32;;;;;;;7.72;4.50;;;;;;;14.36;72.59;102860.16;6243390;22;20049;-72
2022/10/18 07:25:58;;;;;;;8.85;4.40;;;;;;;14.46;72.41;102860.47;6246365;22;20284;-72
2022/10/18 07:28:24;;;;;;;9.63;4.60;;;;;;;14.52;72.63;102872.88;6207936;22;20022;-72
2022/10/18 07:30:49;;;;;;;10.48;5.30;;;;;;;14.51;73.00;102865.88;6247996;22;20095;-70
2022/10/18 07:33:15;;;;;;;8.73;4.97;;;;;;;14.63;72.92;102868.88;6216893;22;20442;-72
2022/10/18 07:35:40;;;;;;;9.32;4.55;;;;;;;14.72;72.84;102869.09;6246444;22;20467;-73
2022/10/18 07:38:05;;;;;;;16.55;5.45;;;;;;;14.78;73.22;102881.50;6246827;22;20082;-71
2022/10/18 07:40:30;;;;;;;13.10;5.35;;;;;;;14.87;72.87;102889.66;6238417;22;20008;-72
2022/10/18 07:42:56;;;;;;;9.60;4.82;;;;;;;14.91;73.10;102884.53;6246023;22;20075;-72
2022/10/18 07:45:21;;;;;;;11.90;4.80;;;;;;;15.06;73.32;102885.81;6239564;22;20011;-72
2022/10/18 07:47:46;;;;;;;9.10;4.40;;;;;;;15.21;73.42;102888.81;6217867;22;20441;-71
2022/10/18 07:50:12;;;;;;;9.95;4.18;;;;;;;15.37;73.40;102893.63;6245774;22;20420;-72
2022/10/18 07:52:37;;;;;;;11.88;4.90;;;;;;;15.50;73.57;102900.06;6238383;22;20456;-73
2022/10/18 07:55:03;;;;;;;11.57;4.38;;;;;;;15.65;74.05;102896.16;6248965;22;19999;-72
2022/10/18 07:57:29;;;;;;;11.38;4.75;;;;;;;15.78;73.88;102903.50;6237992;22;20050;-72
2022/10/18 07:59:55;;;;;;;13.25;4.60;;;;;;;15.87;73.57;102909.78;6244233;22;20375;-73
2022/10/18 08:02:24;;;;;;;10.65;4.30;;;;;;;15.98;73.62;102901.31;6241527;22;20552;-72
2022/10/18 08:04:49;;;;;;;14.05;4.60;;;;;;;16.05;73.76;102905.84;6246354;22;20623;-72
2022/10/18 08:07:15;;;;;;;13.40;4.38;;;;;;;16.13;73.74;102906.94;6245114;22;20026;-73
2022/10/18 08:09:40;;;;;;;13.27;4.80;;;;;;;16.25;73.96;102908.94;6239239;22;20008;-72
2022/10/18 08:12:05;;;;;;;13.55;4.30;;;;;;;16.38;74.42;102900.47;6245543;22;20006;-73
2022/10/18 08:14:31;;;;;;;11.57;4.03;;;;;;;16.52;74.00;102901.66;6239010;22;20316;-72
2022/10/18 08:16:56;;;;;;;15.23;4.57;;;;;;;16.57;73.74;102907.03;6245552;22;20197;-72
2022/10/18 08:19:21;;;;;;;10.95;4.05;;;;;;;16.67;73.75;102901.13;6245135;22;20004;-72
2022/10/18 08:21:47;;;;;;;12.00;4.53;;;;;;;16.79;73.68;102905.75;6240701;22;20031;-72
2022/10/18 08:24:12;;;;;;;13.00;3.65;;;;;;;16.90;73.90;102902.44;6249254;22;20513;-73
2022/10/18 08:26:37;;;;;;;16.38;3.88;;;;;;;17.00;73.64;102898.28;6219600;22;20747;-72
2022/10/18 08:49:43;;;;;;;10.77;2.90;;;;;;;17.76;73.86;102912.81;5474456;22;20050;-72
2022/10/18 08:52:14;;;;;;;8.63;2.33;;;;;;;17.78;73.14;102912.00;4951340;28;20591;-72
2022/10/18 08:54:58;;;;;;;7.35;2.20;;;;;;;17.89;72.37;102912.16;4989003;28;20441;-72
2022/10/18 08:57:23;;;;;;;8.65;2.60;;;;;;;17.90;71.75;102916.56;4991757;28;20057;-73
2022/10/18 08:59:49;;;;;;;8.45;1.80;;;;;;;17.91;71.12;102910.44;4991408;28;20117;-72
2022/10/18 09:02:52;;;;;;;7.00;1.88;;;;;;;18.15;70.83;102902.88;4978364;28;20047;-72
2022/10/18 09:05:36;;;;;;;6.93;1.40;;;;;;;17.71;68.90;102915.38;4986179;28;20840;-73
2022/10/18 09:08:22;;;;;;;8.93;1.65;;;;;;;17.91;68.08;102914.81;4985923;28;20140;-71
2022/10/18 09:11:33;;;;;;;10.10;1.58;;;;;;;18.01;66.66;102914.09;4978706;28;20038;-72
2022/10/18 09:14:11;;;;;;;7.05;1.50;;;;;;;18.13;66.37;102920.44;4976746;28;20042;-72
2022/10/18 09:17:02;;;;;;;8.98;1.40;;;;;;;18.21;66.42;102920.56;4973379;28;20496;-72
2022/10/18 09:20:08;;;;;;;7.20;1.25;;;;;;;18.19;65.92;102928.44;4968503;28;20121;-72
2022/10/18 09:22:59;;;;;;;6.97;1.10;;;;;;;18.17;62.10;102924.03;4973630;28;20030;-73
2022/10/18 09:25:29;;;;;;;8.75;1.60;;;;;;;18.17;61.29;102932.84;4940557;28;20051;-73
2022/10/18 09:28:09;;;;;;;5.57;1.30;;;;;;;18.25;61.40;102933.81;4932401;28;20078;-73
2022/10/18 09:30:50;;;;;;;8.63;1.10;;;;;;;18.28;60.46;102934.75;4931510;28;20031;-72
2022/10/18 09:33:27;;;;;;;7.88;1.38;;;;;;;18.39;61.11;102943.69;4928692;28;20047;-73
2022/10/18 09:35:59;;;;;;;7.97;1.60;;;;;;;18.25;61.21;102938.22;4913274;29;20478;-72
2022/10/18 09:38:30;;;;;;;6.22;1.30;;;;;;;18.37;60.68;102938.38;4909280;28;20050;-73
2022/10/18 09:41:21;;;;;;;6.65;1.40;;;;;;;18.35;62.35;102953.34;4912630;29;20072;-72
2022/10/18 09:44:05;;;;;;;7.88;1.50;;;;;;;18.52;62.11;102961.50;4907859;28;20059;-72
2022/10/18 09:46:36;;;;;;;9.38;1.45;;;;;;;18.55;61.33;102949.22;4902300;29;20745;-73
2022/10/18 09:49:10;;;;;;;8.00;1.40;;;;;;;18.97;60.99;102956.81;4907538;29;20112;-72
2022/10/18 09:51:37;;;;;;;13.25;1.30;;;;;;;18.66;62.16;102962.63;4903487;29;20040;-72
2022/10/18 09:54:18;;;;;;;9.35;1.70;;;;;;;18.99;60.72;102952.44;4900558;29;20112;-72
2022/10/18 09:56:48;;;;;;;7.63;1.60;;;;;;;18.82;61.58;102961.94;4908125;29;20036;-72
2022/10/18 09:59:40;;;;;;;8.20;1.65;;;;;;;18.76;61.95;102964.50;4898701;29;20024;-72
2022/10/18 10:02:08;;;;;;;8.30;1.48;;;;;;;18.87;60.97;102970.78;4891534;29;20093;-72
2022/10/18 10:04:33;;;;;;;9.10;1.65;;;;;;;19.08;60.88;102971.94;4898012;29;20487;-73
2022/10/18 10:07:00;;;;;;;5.03;1.38;;;;;;;19.26;60.20;102970.38;4893590;29;20036;-73
2022/10/18 10:09:35;;;;;;;6.55;1.30;;;;;;;18.94;59.48;102966.47;4899845;29;20504;-72
2022/10/18 10:12:01;;;;;;;6.35;1.30;;;;;;;19.05;58.79;102968.38;4901099;29;20158;-72
2022/10/18 10:14:29;;;;;;;8.93;1.60;;;;;;;19.08;59.15;102978.09;4887576;29;20058;-73
2022/10/18 10:17:04;;;;;;;7.85;1.70;;;;;;;19.24;57.95;102976.50;4894469;29;20060;-72
2022/10/18 10:19:55;;;;;;;6.28;1.58;;;;;;;19.13;57.03;102973.75;4891648;29;20585;-74
2022/10/18 10:22:27;;;;;;;7.57;1.30;;;;;;;19.17;57.74;102962.34;4900799;29;20767;-72
2022/10/18 10:24:54;;;;;;;7.35;1.30;;;;;;;19.34;56.89;102971.31;4896027;29;20410;-72
2022/10/18 10:27:51;;;;;;;7.70;1.38;;;;;;;19.47;55.63;102979.41;4894809;29;20453;-72
2022/10/18 10:30:27;;;;;;;6.28;1.23;;;;;;;19.40;54.76;102976.69;4877736;29;20111;-72
2022/10/18 10:32:54;;;;;;;7.35;1.33;;;;;;;19.55;55.43;102977.75;4897051;29;20036;-72
2022/10/18 10:35:29;;;;;;;9.93;1.50;;;;;;;19.23;54.50;102978.25;4900915;29;20044;-72
2022/10/18 10:37:55;;;;;;;8.18;1.23;;;;;;;19.62;54.55;102977.84;4892363;29;20444;-72
2022/10/18 10:40:55;;;;;;;7.35;1.60;;;;;;;19.35;54.45;102981.03;4898228;29;20031;-72
2022/10/18 10:43:26;;;;;;;5.00;1.20;;;;;;;19.54;53.22;102981.25;4882185;29;20732;-73
2022/10/18 10:46:04;;;;;;;6.30;1.40;;;;;;;19.85;53.92;102983.31;4889870;29;20364;-73
2022/10/18 10:48:40;;;;;;;5.82;1.05;;;;;;;19.49;54.97;102988.28;4892494;29;20048;-72
2022/10/18 10:51:08;;;;;;;7.30;1.25;;;;;;;19.68;53.67;102991.13;4888749;29;20469;-73
2022/10/18 10:53:58;;;;;;;8.57;1.35;;;;;;;19.44;55.84;102989.09;4888303;29;20419;-72
2022/10/18 10:56:29;;;;;;;6.88;1.30;;;;;;;19.79;55.19;102991.22;4884560;29;20055;-72
2022/10/18 10:59:00;;;;;;;8.10;1.27;;;;;;;19.68;53.39;102992.88;4889811;29;20055;-73
2022/10/18 11:01:29;;;;;;;6.20;1.40;;;;;;;19.48;53.18;102997.06;4877793;29;20048;-72
2022/10/18 11:04:01;;;;;;;8.52;1.25;;;;;;;19.66;53.64;102997.25;4894361;29;20080;-74
2022/10/18 11:06:51;;;;;;;4.97;1.20;;;;;;;19.67;54.00;102997.28;4904046;29;20059;-72
2022/10/18 11:09:31;;;;;;;6.72;1.13;;;;;;;19.32;53.14;102996.00;4904274;29;20052;-72
2022/10/18 11:12:03;;;;;;;7.90;1.30;;;;;;;19.43;52.15;102989.06;4892889;29;21021;-72
2022/10/18 11:14:37;;;;;;;7.05;1.00;;;;;;;19.66;52.82;102999.91;4888078;29;20044;-73
2022/10/18 11:17:28;;;;;;;7.82;1.25;;;;;;;19.77;51.61;102999.13;4864540;29;20031;-72
2022/10/18 11:20:03;;;;;;;5.38;1.15;;;;;;;19.91;51.36;102999.25;4887309;29;20821;-73
2022/10/18 11:22:39;;;;;;;5.80;1.10;;;;;;;19.69;49.68;102994.66;4883188;29;20024;-72
2022/10/18 11:25:11;;;;;;;5.43;1.20;;;;;;;19.61;49.45;103001.63;4881235;29;20039;-72
2022/10/18 11:28:00;;;;;;;4.03;1.00;;;;;;;19.75;51.22;103005.31;4863807;29;20044;-72
2022/10/18 11:30:49;;;;;;;5.90;1.00;;;;;;;19.78;51.02;103007.97;4882216;29;20048;-73
2022/10/18 11:33:51;;;;;;;6.13;1.02;;;;;;;19.96;50.41;102991.34;4882337;29;20572;-73
2022/10/18 11:36:28;;;;;;;7.50;1.13;;;;;;;19.87;50.58;102999.22;4888214;29;21759;-72
2022/10/18 11:39:07;;;;;;;11.23;1.60;;;;;;;19.71;51.43;102999.06;4886281;29;20325;-74
2022/10/18 11:42:17;;;;;;;4.47;0.90;;;;;;;19.52;50.86;102996.25;4891256;29;20663;-73
2022/10/18 11:45:01;;;;;;;6.00;0.90;;;;;;;19.88;50.25;102983.38;4879685;29;20082;-73
2022/10/18 11:47:39;;;;;;;9.18;1.35;;;;;;;19.79;51.34;102997.41;4888267;29;20326;-72
2022/10/18 11:50:16;;;;;;;6.78;1.10;;;;;;;19.73;50.37;102994.69;4887797;29;20051;-72
2022/10/18 11:52:51;;;;;;;8.10;1.25;;;;;;;20.01;50.56;102987.84;4890374;29;20314;-73
2022/10/18 11:55:47;;;;;;;8.27;1.52;;;;;;;19.68;51.42;102990.22;4881718;29;20044;-73
2022/10/18 11:58:18;;;;;;;4.88;1.10;;;;;;;20.01;51.05;103001.09;4889621;29;20484;-74